Welcome to our new website - Welkom op onze vernieuwde website - Bienvenue sur notre nouveau site web - Willkommen auf unserer neuen Website
Check our progress frequently. Prüfen Sie unsere Fortschritte regelmäßig. Consultez notre progression fréquemment. Komt u straks nog eens terug


Bezoek onze andere website:

Template documentation
and downloads

And another site



METAR rapporten vliegvelden

   
EBBR - Brussels International Airport, Belgium
Afstand tot: W 14 km
Gewijzigd: Oct 29 2020 10:50 pm
Lichte (mot)regen, Grotendeels bewolkt  
Lichte (mot)regen, Grotendeels bewolkt  
   Wind: ZW 30 km/h
Wind: ZW 30 km/h
Temperatuur: 13°C
Dauwpunt: 11°C
Vochtigheid: 88%
Barometer: 1017 hPa
Bewolking: Grotendeels bewolkt
Zicht: meer dan 10 km
Bewolking: Licht bewolkt 365.8 m,
Gedeeltelijk bewolkt 457.2 m,
Grotendeels bewolkt 609.6 m
EBBR 292150Z 23016KT 9999 -DZ FEW012 SCT015 BKN020 13/11 Q1017 TEMPO BKN010
EBBE - Beauvechain (Bevekom), Belgium
Afstand tot: ZZO 17 km
Gewijzigd: Oct 29 2020 10:25 pm
Grotendeels bewolkt  
Grotendeels bewolkt  
   Wind: ZW 26 km/h
Wind: ZW 26 km/h
Temperatuur: 13°C
Dauwpunt: 11°C
Vochtigheid: 88%
Barometer: 1017 hPa
Bewolking: Grotendeels bewolkt
Zicht: meer dan 10 km
Bewolking: Licht bewolkt 335.3 m,
Gedeeltelijk bewolkt 548.6 m,
Grotendeels bewolkt 640.1 m
EBBE 292125Z AUTO 22014KT 9999 FEW011/// SCT018/// BKN021/// 13/11 Q1017 WHT
EBDT - Schaffen, Belgium
Afstand tot: ONO 29 km
Gewijzigd: Oct 29 2020 10:34 pm
Grotendeels bewolkt  
Grotendeels bewolkt  
   Wind: ZZW 15 km/h
Wind: ZZW 15 km/h
Temperatuur: 13°C
Dauwpunt: 12°C
Vochtigheid: 94%
Barometer: 1017 hPa
Bewolking: Grotendeels bewolkt
Zicht: meer dan 10 km
Bewolking: Licht bewolkt 335.3 m,
Gedeeltelijk bewolkt 426.7 m,
Grotendeels bewolkt 518.2 m
EBDT 292134Z AUTO 21008KT 9999 FEW011/// SCT014/// BKN017/// 13/12 Q1017 GRN
EBAW - Antwerp/Deurne, Belgium
Afstand tot: NNW 38 km
Gewijzigd: Oct 29 2020 10:50 pm
Grotendeels bewolkt  
Grotendeels bewolkt  
   Wind: ZW 17 km/h
Wind: ZW 17 km/h
Temperatuur: 13°C
Dauwpunt: 12°C
Vochtigheid: 94%
Barometer: 1016 hPa
Bewolking: Grotendeels bewolkt
Zicht: meer dan 10 km
Bewolking: Gedeeltelijk bewolkt 426.7 m,
Grotendeels bewolkt 701 m
EBAW 292150Z 22009KT 9999 SCT014 BKN023 13/12 Q1016 TEMPO SCT008 BKN014
EBCI - Charleroi/Gosselies, Belgium
Afstand tot: ZZW 51 km
Gewijzigd: Oct 29 2020 10:50 pm
Wat regen mogelijk, Grotendeels bewolkt  
Wat regen mogelijk, Grotendeels bewolkt  
   Wind: ZW 26 km/h
Wind: ZW 26 km/h
Temperatuur: 12°C
Dauwpunt: 11°C
Vochtigheid: 94%
Barometer: 1018 hPa
Bewolking: Grotendeels bewolkt
Zicht: 5 km
Bewolking: Gedeeltelijk bewolkt 152.4 m,
Grotendeels bewolkt 243.8 m
EBCI 292150Z 23014KT 5000 -RA SCT005 BKN008 12/11 Q1018 TEMPO 4000
EBLG - Bierset/Liege, Belgium
Afstand tot: OZO 60 km
Gewijzigd: Oct 29 2020 10:50 pm
Grotendeels bewolkt  
Grotendeels bewolkt  
   Wind: ZW 28 km/h
Wind: ZW 28 km/h
Temperatuur: 12°C
Dauwpunt: 11°C
Vochtigheid: 94%
Barometer: 1018 hPa
Bewolking: Grotendeels bewolkt
Zicht: meer dan 10 km
Bewolking: Licht bewolkt 365.8 m,
Grotendeels bewolkt 609.6 m
EBLG 292150Z 22015KT 9999 FEW012 BKN020 12/11 Q1018 TEMPO 3500 DZRA BKN008

Script ontwikkeld door  Saratoga-weather.org Aangepast voor de template door  Weerstation Leuven

U vindt ons ook hier:

Het Weer Aktueel

UK Metoffice

European Weather Network

WeatherCloud

Weather Underground

AWEKAS

Apparatuur in gebruik:

Weerstation
Davis VP2

Weerprogramma
Meteobridge

Weercomputer
Tl-mr3020

Webleverancier
Robohost

Davis VP2

Meteobridge

Tl-mr3020

Robohost